Montgomery Creek, California
Current Conditions -  °F | °C
As of 6:53 PM on Saturday 25 Oct 2014 (Local Time) from KRDD Reporting Station
Overcast Overcast  
Wind Chill: 59°   Ceiling: 6500
Heat Index: 59°   Visibility: 10mi
Dew Point: 59°   Wind: 3mph
Humidity: 100%   Direction: 350°N
Pressure: 29.95"   Gusts: NA
Location:  40.85°N, 121.96°W
Report Text: KRDD 260153Z 35003KT 10SM OVC065 15/15 A2995 RMK AO2 LTG DSNT E SLP138 T01500150
Loading
Personal Weather Stations






























Interactive Weather Map
Tropical Storm Tracking
New forecast layout! Learn more

10-Day Weather Forecast

Advertisements
Track Severe Weather on mobile